sensor_id;sensor_type;location;lat;lon;timestamp;pressure;altitude;pressure_sealevel;temperature;humidity
23733;BME280;12047;53.450;-2.286;2023-10-13T00:03:12;100181.00;;;18.26;100.00
23733;BME280;12047;53.450;-2.286;2023-10-13T00:08:15;100165.78;;;17.92;100.00
23733;BME280;12047;53.450;-2.286;2023-10-13T00:13:17;100155.03;;;18.40;100.00
23733;BME280;12047;53.450;-2.286;2023-10-13T00:18:19;100140.28;;;18.70;100.00
23733;BME280;12047;53.450;-2.286;2023-10-13T00:23:20;100139.63;;;18.61;100.00
23733;BME280;12047;53.450;-2.286;2023-10-13T00:28:25;100130.28;;;18.44;100.00
23733;BME280;12047;53.450;-2.286;2023-10-13T00:33:26;100117.16;;;19.09;100.00
23733;BME280;12047;53.450;-2.286;2023-10-13T00:38:27;100101.91;;;19.02;100.00
23733;BME280;12047;53.450;-2.286;2023-10-13T00:43:27;100099.59;;;18.66;100.00
23733;BME280;12047;53.450;-2.286;2023-10-13T00:48:30;100074.13;;;18.23;100.00
23733;BME280;12047;53.450;-2.286;2023-10-13T00:53:35;100059.75;;;18.96;100.00
23733;BME280;12047;53.450;-2.286;2023-10-13T00:58:45;100043.47;;;18.65;100.00
23733;BME280;12047;53.450;-2.286;2023-10-13T01:03:53;100030.88;;;18.72;100.00
23733;BME280;12047;53.450;-2.286;2023-10-13T01:09:03;100026.34;;;18.66;100.00
23733;BME280;12047;53.450;-2.286;2023-10-13T01:19:36;99981.31;;;18.35;100.00
23733;BME280;12047;53.450;-2.286;2023-10-13T01:24:43;99960.59;;;19.08;100.00
23733;BME280;12047;53.450;-2.286;2023-10-13T01:29:45;99953.00;;;19.05;100.00
23733;BME280;12047;53.450;-2.286;2023-10-13T01:34:50;99933.22;;;18.80;100.00
23733;BME280;12047;53.450;-2.286;2023-10-13T01:39:55;99923.13;;;18.35;100.00
23733;BME280;12047;53.450;-2.286;2023-10-13T01:44:59;99908.06;;;18.74;100.00
23733;BME280;12047;53.450;-2.286;2023-10-13T02:00:26;99868.13;;;18.97;100.00
23733;BME280;12047;53.450;-2.286;2023-10-13T02:05:27;99856.09;;;19.07;100.00
23733;BME280;12047;53.450;-2.286;2023-10-13T02:10:33;99837.34;;;19.38;100.00
23733;BME280;12047;53.450;-2.286;2023-10-13T02:15:33;99817.78;;;18.86;100.00
23733;BME280;12047;53.450;-2.286;2023-10-13T02:20:35;99799.69;;;18.75;100.00
23733;BME280;12047;53.450;-2.286;2023-10-13T02:25:42;99783.94;;;18.85;100.00
23733;BME280;12047;53.450;-2.286;2023-10-13T02:30:44;99764.47;;;18.96;100.00
23733;BME280;12047;53.450;-2.286;2023-10-13T02:35:44;99742.19;;;18.96;100.00
23733;BME280;12047;53.450;-2.286;2023-10-13T02:40:54;99741.63;;;19.50;100.00
23733;BME280;12047;53.450;-2.286;2023-10-13T02:45:55;99728.91;;;19.32;100.00
23733;BME280;12047;53.450;-2.286;2023-10-13T02:50:59;99713.50;;;18.90;100.00
23733;BME280;12047;53.450;-2.286;2023-10-13T02:56:07;99698.72;;;19.06;100.00
23733;BME280;12047;53.450;-2.286;2023-10-13T03:01:08;99674.50;;;18.87;100.00
23733;BME280;12047;53.450;-2.286;2023-10-13T03:06:18;99661.22;;;18.99;100.00
23733;BME280;12047;53.450;-2.286;2023-10-13T03:11:24;99628.13;;;19.30;100.00
23733;BME280;12047;53.450;-2.286;2023-10-13T03:16:25;99612.47;;;19.02;100.00
23733;BME280;12047;53.450;-2.286;2023-10-13T03:21:29;99594.38;;;18.91;100.00
23733;BME280;12047;53.450;-2.286;2023-10-13T03:26:30;99580.84;;;19.47;100.00
23733;BME280;12047;53.450;-2.286;2023-10-13T03:31:37;99555.75;;;19.35;100.00
23733;BME280;12047;53.450;-2.286;2023-10-13T03:36:39;99555.41;;;19.07;100.00
23733;BME280;12047;53.450;-2.286;2023-10-13T03:41:59;99535.44;;;19.39;100.00
23733;BME280;12047;53.450;-2.286;2023-10-13T03:47:00;99535.47;;;19.57;100.00
23733;BME280;12047;53.450;-2.286;2023-10-13T03:52:18;99526.13;;;20.08;100.00
23733;BME280;12047;53.450;-2.286;2023-10-13T03:57:22;99510.38;;;20.12;100.00
23733;BME280;12047;53.450;-2.286;2023-10-13T04:02:27;99500.56;;;19.87;100.00
23733;BME280;12047;53.450;-2.286;2023-10-13T04:07:28;99477.13;;;19.28;100.00
23733;BME280;12047;53.450;-2.286;2023-10-13T04:13:00;99459.34;;;19.45;100.00
23733;BME280;12047;53.450;-2.286;2023-10-13T04:18:19;99435.63;;;19.06;100.00
23733;BME280;12047;53.450;-2.286;2023-10-13T04:23:47;99420.03;;;19.32;100.00
23733;BME280;12047;53.450;-2.286;2023-10-13T04:29:06;99416.09;;;19.35;100.00
23733;BME280;12047;53.450;-2.286;2023-10-13T04:34:11;99397.16;;;19.78;100.00
23733;BME280;12047;53.450;-2.286;2023-10-13T04:39:18;99388.31;;;20.13;100.00
23733;BME280;12047;53.450;-2.286;2023-10-13T04:44:29;99381.31;;;20.23;100.00
23733;BME280;12047;53.450;-2.286;2023-10-13T04:49:31;99374.97;;;19.94;100.00
23733;BME280;12047;53.450;-2.286;2023-10-13T04:54:36;99377.44;;;20.19;100.00
23733;BME280;12047;53.450;-2.286;2023-10-13T04:59:50;99346.31;;;19.17;100.00
23733;BME280;12047;53.450;-2.286;2023-10-13T05:05:14;99347.16;;;20.12;100.00
23733;BME280;12047;53.450;-2.286;2023-10-13T05:10:14;99351.88;;;20.28;100.00
23733;BME280;12047;53.450;-2.286;2023-10-13T05:15:34;99342.22;;;19.74;100.00
23733;BME280;12047;53.450;-2.286;2023-10-13T05:20:55;99328.25;;;19.54;100.00
23733;BME280;12047;53.450;-2.286;2023-10-13T05:26:14;99323.31;;;19.92;100.00
23733;BME280;12047;53.450;-2.286;2023-10-13T05:31:33;99323.44;;;20.21;100.00
23733;BME280;12047;53.450;-2.286;2023-10-13T05:36:52;99317.00;;;20.57;100.00
23733;BME280;12047;53.450;-2.286;2023-10-13T05:42:11;99308.94;;;20.22;100.00
23733;BME280;12047;53.450;-2.286;2023-10-13T05:47:30;99312.56;;;20.04;100.00
23733;BME280;12047;53.450;-2.286;2023-10-13T05:52:39;99286.59;;;19.03;100.00
23733;BME280;12047;53.450;-2.286;2023-10-13T05:57:58;99251.06;;;18.89;100.00
23733;BME280;12047;53.450;-2.286;2023-10-13T06:03:17;99240.09;;;19.74;100.00
23733;BME280;12047;53.450;-2.286;2023-10-13T06:08:36;99245.69;;;20.19;100.00
23733;BME280;12047;53.450;-2.286;2023-10-13T06:13:55;99248.03;;;20.16;100.00
23733;BME280;12047;53.450;-2.286;2023-10-13T06:19:14;99233.44;;;19.77;100.00
23733;BME280;12047;53.450;-2.286;2023-10-13T06:24:33;99245.56;;;20.37;100.00
23733;BME280;12047;53.450;-2.286;2023-10-13T06:29:52;99251.16;;;20.48;100.00
23733;BME280;12047;53.450;-2.286;2023-10-13T06:34:56;99231.31;;;20.25;100.00
23733;BME280;12047;53.450;-2.286;2023-10-13T06:40:11;99223.50;;;19.89;100.00
23733;BME280;12047;53.450;-2.286;2023-10-13T06:45:21;99229.09;;;20.11;100.00
23733;BME280;12047;53.450;-2.286;2023-10-13T06:50:22;99243.19;;;20.29;100.00
23733;BME280;12047;53.450;-2.286;2023-10-13T06:55:25;99246.63;;;20.13;100.00
23733;BME280;12047;53.450;-2.286;2023-10-13T07:00:28;99239.47;;;20.42;100.00
23733;BME280;12047;53.450;-2.286;2023-10-13T07:05:41;99266.25;;;20.25;100.00
23733;BME280;12047;53.450;-2.286;2023-10-13T07:11:02;99281.22;;;20.45;100.00
23733;BME280;12047;53.450;-2.286;2023-10-13T07:16:03;99289.41;;;19.91;100.00
23733;BME280;12047;53.450;-2.286;2023-10-13T07:21:09;99309.97;;;19.74;100.00
23733;BME280;12047;53.450;-2.286;2023-10-13T07:26:10;99315.28;;;19.51;100.00
23733;BME280;12047;53.450;-2.286;2023-10-13T07:31:16;99318.94;;;19.80;100.00
23733;BME280;12047;53.450;-2.286;2023-10-13T07:36:16;99327.28;;;20.13;100.00
23733;BME280;12047;53.450;-2.286;2023-10-13T07:41:33;99340.72;;;19.90;100.00
23733;BME280;12047;53.450;-2.286;2023-10-13T07:46:34;99310.22;;;20.08;100.00
23733;BME280;12047;53.450;-2.286;2023-10-13T07:51:35;99309.06;;;20.15;100.00
23733;BME280;12047;53.450;-2.286;2023-10-13T07:56:44;99324.38;;;20.38;100.00
23733;BME280;12047;53.450;-2.286;2023-10-13T08:01:45;99310.44;;;19.94;100.00
23733;BME280;12047;53.450;-2.286;2023-10-13T08:06:46;99305.44;;;20.45;100.00
23733;BME280;12047;53.450;-2.286;2023-10-13T08:11:49;99294.56;;;20.51;100.00
23733;BME280;12047;53.450;-2.286;2023-10-13T08:16:50;99290.94;;;20.46;100.00
23733;BME280;12047;53.450;-2.286;2023-10-13T08:22:02;99309.19;;;20.20;100.00
23733;BME280;12047;53.450;-2.286;2023-10-13T08:27:20;99296.91;;;20.01;100.00
23733;BME280;12047;53.450;-2.286;2023-10-13T08:32:34;99288.59;;;20.37;100.00
23733;BME280;12047;53.450;-2.286;2023-10-13T08:37:54;99283.09;;;20.44;100.00
23733;BME280;12047;53.450;-2.286;2023-10-13T08:42:56;99283.56;;;20.53;100.00
23733;BME280;12047;53.450;-2.286;2023-10-13T08:48:06;99307.84;;;20.69;100.00
23733;BME280;12047;53.450;-2.286;2023-10-13T08:53:27;99340.88;;;20.53;100.00
23733;BME280;12047;53.450;-2.286;2023-10-13T08:58:33;99343.16;;;19.91;100.00
23733;BME280;12047;53.450;-2.286;2023-10-13T09:03:55;99349.72;;;20.07;100.00
23733;BME280;12047;53.450;-2.286;2023-10-13T09:09:17;99362.56;;;19.22;100.00
23733;BME280;12047;53.450;-2.286;2023-10-13T09:14:43;99376.56;;;19.24;100.00
23733;BME280;12047;53.450;-2.286;2023-10-13T09:19:58;99384.66;;;19.95;100.00
23733;BME280;12047;53.450;-2.286;2023-10-13T09:24:59;99399.44;;;19.45;100.00
23733;BME280;12047;53.450;-2.286;2023-10-13T09:30:08;99401.91;;;19.46;100.00
23733;BME280;12047;53.450;-2.286;2023-10-13T09:35:26;99400.75;;;19.24;100.00
23733;BME280;12047;53.450;-2.286;2023-10-13T09:40:28;99400.81;;;20.07;100.00
23733;BME280;12047;53.450;-2.286;2023-10-13T09:45:38;99419.28;;;19.62;100.00
23733;BME280;12047;53.450;-2.286;2023-10-13T09:50:44;99437.69;;;19.77;100.00
23733;BME280;12047;53.450;-2.286;2023-10-13T09:55:51;99426.66;;;19.48;100.00
23733;BME280;12047;53.450;-2.286;2023-10-13T10:00:57;99423.38;;;20.06;100.00
23733;BME280;12047;53.450;-2.286;2023-10-13T10:06:07;99428.66;;;20.13;100.00
23733;BME280;12047;53.450;-2.286;2023-10-13T10:21:38;99456.22;;;19.48;100.00
23733;BME280;12047;53.450;-2.286;2023-10-13T10:26:59;99437.28;;;20.03;100.00
23733;BME280;12047;53.450;-2.286;2023-10-13T10:32:00;99427.91;;;20.05;100.00
23733;BME280;12047;53.450;-2.286;2023-10-13T10:37:02;99424.06;;;19.42;100.00
23733;BME280;12047;53.450;-2.286;2023-10-13T10:42:13;99457.47;;;18.73;100.00
23733;BME280;12047;53.450;-2.286;2023-10-13T10:47:22;99482.81;;;18.52;100.00
23733;BME280;12047;53.450;-2.286;2023-10-13T10:52:34;99491.59;;;18.34;100.00
23733;BME280;12047;53.450;-2.286;2023-10-13T10:57:40;99481.91;;;18.58;100.00
23733;BME280;12047;53.450;-2.286;2023-10-13T11:02:53;99499.28;;;19.42;100.00
23733;BME280;12047;53.450;-2.286;2023-10-13T11:07:58;99488.75;;;19.03;100.00
23733;BME280;12047;53.450;-2.286;2023-10-13T11:13:00;99483.69;;;19.14;100.00
23733;BME280;12047;53.450;-2.286;2023-10-13T11:18:14;99508.22;;;18.74;100.00
23733;BME280;12047;53.450;-2.286;2023-10-13T11:23:21;99520.34;;;17.89;100.00
23733;BME280;12047;53.450;-2.286;2023-10-13T11:28:28;99519.22;;;17.65;100.00
23733;BME280;12047;53.450;-2.286;2023-10-13T11:33:29;99520.59;;;17.81;100.00
23733;BME280;12047;53.450;-2.286;2023-10-13T11:38:31;99522.38;;;17.93;100.00
23733;BME280;12047;53.450;-2.286;2023-10-13T11:43:46;99535.53;;;18.01;100.00
23733;BME280;12047;53.450;-2.286;2023-10-13T11:48:50;99549.38;;;17.98;100.00
23733;BME280;12047;53.450;-2.286;2023-10-13T11:53:54;99550.00;;;17.94;100.00
23733;BME280;12047;53.450;-2.286;2023-10-13T11:58:55;99557.97;;;17.56;100.00
23733;BME280;12047;53.450;-2.286;2023-10-13T12:04:16;99560.41;;;17.71;100.00
23733;BME280;12047;53.450;-2.286;2023-10-13T12:09:35;99550.38;;;18.04;100.00
23733;BME280;12047;53.450;-2.286;2023-10-13T12:14:53;99537.41;;;18.01;100.00
23733;BME280;12047;53.450;-2.286;2023-10-13T12:19:59;99553.59;;;18.51;100.00
23733;BME280;12047;53.450;-2.286;2023-10-13T12:25:00;99556.69;;;18.48;100.00
23733;BME280;12047;53.450;-2.286;2023-10-13T12:30:05;99553.47;;;18.01;100.00
23733;BME280;12047;53.450;-2.286;2023-10-13T12:35:13;99556.28;;;18.13;100.00
23733;BME280;12047;53.450;-2.286;2023-10-13T12:40:16;99571.69;;;18.62;100.00
23733;BME280;12047;53.450;-2.286;2023-10-13T12:45:49;99562.28;;;18.46;100.00
23733;BME280;12047;53.450;-2.286;2023-10-13T12:51:08;99544.28;;;18.53;100.00
23733;BME280;12047;53.450;-2.286;2023-10-13T12:56:21;99563.84;;;18.60;100.00
23733;BME280;12047;53.450;-2.286;2023-10-13T13:01:28;99570.38;;;18.96;100.00
23733;BME280;12047;53.450;-2.286;2023-10-13T13:06:33;99570.59;;;18.69;100.00
23733;BME280;12047;53.450;-2.286;2023-10-13T13:11:33;99569.50;;;18.08;100.00
23733;BME280;12047;53.450;-2.286;2023-10-13T13:16:39;99587.91;;;18.04;100.00
23733;BME280;12047;53.450;-2.286;2023-10-13T13:21:39;99603.63;;;17.87;100.00
23733;BME280;12047;53.450;-2.286;2023-10-13T13:26:40;99603.00;;;17.92;100.00
23733;BME280;12047;53.450;-2.286;2023-10-13T13:31:40;99597.31;;;18.13;100.00
23733;BME280;12047;53.450;-2.286;2023-10-13T13:36:42;99600.50;;;17.97;100.00
23733;BME280;12047;53.450;-2.286;2023-10-13T13:41:44;99584.84;;;17.94;100.00
23733;BME280;12047;53.450;-2.286;2023-10-13T13:46:45;99599.88;;;18.33;100.00
23733;BME280;12047;53.450;-2.286;2023-10-13T13:51:45;99596.25;;;17.76;100.00
23733;BME280;12047;53.450;-2.286;2023-10-13T13:56:52;99594.09;;;18.05;100.00
23733;BME280;12047;53.450;-2.286;2023-10-13T14:01:52;99592.47;;;17.97;100.00
23733;BME280;12047;53.450;-2.286;2023-10-13T14:06:53;99597.94;;;18.15;100.00
23733;BME280;12047;53.450;-2.286;2023-10-13T14:11:53;99601.81;;;17.81;100.00
23733;BME280;12047;53.450;-2.286;2023-10-13T14:17:16;99596.50;;;18.13;100.00
23733;BME280;12047;53.450;-2.286;2023-10-13T14:22:17;99604.69;;;17.80;100.00
23733;BME280;12047;53.450;-2.286;2023-10-13T14:27:17;99608.16;;;18.31;100.00
23733;BME280;12047;53.450;-2.286;2023-10-13T14:32:20;99611.94;;;18.55;100.00
23733;BME280;12047;53.450;-2.286;2023-10-13T14:37:24;99612.53;;;17.81;100.00
23733;BME280;12047;53.450;-2.286;2023-10-13T14:42:29;99620.66;;;18.06;100.00
23733;BME280;12047;53.450;-2.286;2023-10-13T14:47:35;99624.56;;;17.26;100.00
23733;BME280;12047;53.450;-2.286;2023-10-13T14:52:39;99633.78;;;17.50;100.00
23733;BME280;12047;53.450;-2.286;2023-10-13T14:57:40;99643.28;;;17.39;100.00
23733;BME280;12047;53.450;-2.286;2023-10-13T15:02:42;99655.22;;;17.10;100.00
23733;BME280;12047;53.450;-2.286;2023-10-13T15:07:44;99656.00;;;17.63;100.00
23733;BME280;12047;53.450;-2.286;2023-10-13T15:12:45;99645.69;;;17.60;100.00
23733;BME280;12047;53.450;-2.286;2023-10-13T15:17:46;99661.59;;;17.55;100.00
23733;BME280;12047;53.450;-2.286;2023-10-13T15:22:47;99664.63;;;17.92;100.00
23733;BME280;12047;53.450;-2.286;2023-10-13T15:27:58;99681.97;;;17.63;100.00
23733;BME280;12047;53.450;-2.286;2023-10-13T15:33:02;99674.97;;;17.75;100.00
23733;BME280;12047;53.450;-2.286;2023-10-13T15:38:05;99678.69;;;17.54;100.00
23733;BME280;12047;53.450;-2.286;2023-10-13T15:43:06;99671.94;;;17.32;100.00
23733;BME280;12047;53.450;-2.286;2023-10-13T15:48:07;99679.50;;;17.35;100.00
23733;BME280;12047;53.450;-2.286;2023-10-13T15:53:09;99683.03;;;17.49;100.00
23733;BME280;12047;53.450;-2.286;2023-10-13T15:58:13;99695.59;;;17.55;100.00
23733;BME280;12047;53.450;-2.286;2023-10-13T16:03:13;99685.91;;;17.21;100.00
23733;BME280;12047;53.450;-2.286;2023-10-13T16:08:14;99701.75;;;17.16;100.00
23733;BME280;12047;53.450;-2.286;2023-10-13T16:13:14;99702.16;;;16.93;100.00
23733;BME280;12047;53.450;-2.286;2023-10-13T16:18:15;99708.16;;;17.41;100.00
23733;BME280;12047;53.450;-2.286;2023-10-13T16:23:22;99713.28;;;17.10;100.00
23733;BME280;12047;53.450;-2.286;2023-10-13T16:28:24;99720.28;;;16.97;100.00
23733;BME280;12047;53.450;-2.286;2023-10-13T16:33:24;99724.81;;;17.17;100.00
23733;BME280;12047;53.450;-2.286;2023-10-13T16:38:25;99727.91;;;17.20;100.00
23733;BME280;12047;53.450;-2.286;2023-10-13T16:43:25;99733.69;;;17.24;100.00
23733;BME280;12047;53.450;-2.286;2023-10-13T16:48:26;99735.09;;;17.13;100.00
23733;BME280;12047;53.450;-2.286;2023-10-13T16:53:32;99743.34;;;17.12;100.00
23733;BME280;12047;53.450;-2.286;2023-10-13T16:58:33;99739.66;;;16.52;100.00
23733;BME280;12047;53.450;-2.286;2023-10-13T17:03:37;99752.13;;;16.79;100.00
23733;BME280;12047;53.450;-2.286;2023-10-13T17:08:38;99758.53;;;16.44;100.00
23733;BME280;12047;53.450;-2.286;2023-10-13T17:13:40;99767.09;;;16.67;100.00
23733;BME280;12047;53.450;-2.286;2023-10-13T17:18:42;99784.75;;;16.61;100.00
23733;BME280;12047;53.450;-2.286;2023-10-13T17:23:47;99797.41;;;16.40;100.00
23733;BME280;12047;53.450;-2.286;2023-10-13T17:28:50;99797.97;;;16.70;100.00
23733;BME280;12047;53.450;-2.286;2023-10-13T17:33:51;99803.75;;;16.39;100.00
23733;BME280;12047;53.450;-2.286;2023-10-13T17:38:51;99803.22;;;16.15;100.00
23733;BME280;12047;53.450;-2.286;2023-10-13T17:43:52;99811.28;;;16.63;100.00
23733;BME280;12047;53.450;-2.286;2023-10-13T17:48:53;99826.00;;;16.74;100.00
23733;BME280;12047;53.450;-2.286;2023-10-13T17:53:55;99832.94;;;16.68;100.00
23733;BME280;12047;53.450;-2.286;2023-10-13T17:58:57;99838.31;;;16.68;100.00
23733;BME280;12047;53.450;-2.286;2023-10-13T18:03:59;99837.81;;;16.58;100.00
23733;BME280;12047;53.450;-2.286;2023-10-13T18:09:04;99845.91;;;16.37;100.00
23733;BME280;12047;53.450;-2.286;2023-10-13T18:14:06;99850.97;;;16.59;100.00
23733;BME280;12047;53.450;-2.286;2023-10-13T18:19:06;99857.84;;;16.06;100.00
23733;BME280;12047;53.450;-2.286;2023-10-13T18:24:07;99861.00;;;16.16;100.00
23733;BME280;12047;53.450;-2.286;2023-10-13T18:29:08;99865.63;;;16.29;100.00
23733;BME280;12047;53.450;-2.286;2023-10-13T18:34:09;99855.44;;;15.47;100.00
23733;BME280;12047;53.450;-2.286;2023-10-13T18:39:11;99875.31;;;15.81;100.00
23733;BME280;12047;53.450;-2.286;2023-10-13T18:44:18;99881.91;;;15.85;100.00
23733;BME280;12047;53.450;-2.286;2023-10-13T18:49:20;99881.03;;;15.56;100.00
23733;BME280;12047;53.450;-2.286;2023-10-13T18:54:21;99903.22;;;15.78;100.00
23733;BME280;12047;53.450;-2.286;2023-10-13T18:59:23;99915.69;;;15.92;100.00
23733;BME280;12047;53.450;-2.286;2023-10-13T19:04:23;99923.38;;;15.81;100.00
23733;BME280;12047;53.450;-2.286;2023-10-13T19:09:24;99930.38;;;16.03;100.00
23733;BME280;12047;53.450;-2.286;2023-10-13T19:14:28;99949.56;;;16.13;100.00
23733;BME280;12047;53.450;-2.286;2023-10-13T19:19:28;99959.97;;;16.02;100.00
23733;BME280;12047;53.450;-2.286;2023-10-13T19:24:32;99968.47;;;15.90;100.00
23733;BME280;12047;53.450;-2.286;2023-10-13T19:29:34;99979.84;;;16.20;100.00
23733;BME280;12047;53.450;-2.286;2023-10-13T19:34:34;99978.59;;;16.16;100.00
23733;BME280;12047;53.450;-2.286;2023-10-13T19:39:35;100001.09;;;15.86;100.00
23733;BME280;12047;53.450;-2.286;2023-10-13T19:44:40;100008.16;;;16.15;100.00
23733;BME280;12047;53.450;-2.286;2023-10-13T19:49:43;100031.53;;;16.27;100.00
23733;BME280;12047;53.450;-2.286;2023-10-13T19:54:51;100038.91;;;16.47;100.00
23733;BME280;12047;53.450;-2.286;2023-10-13T19:59:55;100050.44;;;16.05;100.00
23733;BME280;12047;53.450;-2.286;2023-10-13T20:04:55;100064.81;;;16.25;100.00
23733;BME280;12047;53.450;-2.286;2023-10-13T20:09:59;100074.72;;;15.74;100.00
23733;BME280;12047;53.450;-2.286;2023-10-13T20:15:03;100089.72;;;16.25;100.00
23733;BME280;12047;53.450;-2.286;2023-10-13T20:25:59;100120.53;;;15.56;100.00
23733;BME280;12047;53.450;-2.286;2023-10-13T20:31:06;100136.03;;;15.52;100.00
23733;BME280;12047;53.450;-2.286;2023-10-13T20:36:10;100139.63;;;15.45;100.00
23733;BME280;12047;53.450;-2.286;2023-10-13T20:41:11;100145.69;;;15.24;100.00
23733;BME280;12047;53.450;-2.286;2023-10-13T20:46:21;100152.75;;;15.17;100.00
23733;BME280;12047;53.450;-2.286;2023-10-13T20:51:24;100171.84;;;15.43;100.00
23733;BME280;12047;53.450;-2.286;2023-10-13T20:56:34;100194.00;;;15.29;100.00
23733;BME280;12047;53.450;-2.286;2023-10-13T21:01:45;100199.97;;;14.71;100.00
23733;BME280;12047;53.450;-2.286;2023-10-13T21:06:45;100227.22;;;15.26;100.00
23733;BME280;12047;53.450;-2.286;2023-10-13T21:11:57;100243.56;;;15.09;100.00
23733;BME280;12047;53.450;-2.286;2023-10-13T21:17:04;100239.22;;;15.08;100.00
23733;BME280;12047;53.450;-2.286;2023-10-13T21:22:31;100244.13;;;14.96;100.00
23733;BME280;12047;53.450;-2.286;2023-10-13T21:27:31;100255.69;;;15.11;100.00
23733;BME280;12047;53.450;-2.286;2023-10-13T21:32:32;100264.78;;;15.25;100.00
23733;BME280;12047;53.450;-2.286;2023-10-13T21:37:53;100261.81;;;15.20;100.00
23733;BME280;12047;53.450;-2.286;2023-10-13T21:42:58;100264.63;;;14.73;100.00
23733;BME280;12047;53.450;-2.286;2023-10-13T21:48:02;100263.28;;;15.22;100.00
23733;BME280;12047;53.450;-2.286;2023-10-13T21:53:12;100289.25;;;14.36;100.00
23733;BME280;12047;53.450;-2.286;2023-10-13T21:58:13;100284.66;;;14.69;100.00
23733;BME280;12047;53.450;-2.286;2023-10-13T22:03:25;100294.97;;;15.03;100.00
23733;BME280;12047;53.450;-2.286;2023-10-13T22:08:29;100311.91;;;15.55;100.00
23733;BME280;12047;53.450;-2.286;2023-10-13T22:13:30;100315.97;;;15.28;100.00
23733;BME280;12047;53.450;-2.286;2023-10-13T22:18:33;100347.34;;;15.72;100.00
23733;BME280;12047;53.450;-2.286;2023-10-13T22:23:42;100352.97;;;15.09;100.00
23733;BME280;12047;53.450;-2.286;2023-10-13T22:28:45;100360.75;;;15.10;100.00
23733;BME280;12047;53.450;-2.286;2023-10-13T22:33:56;100362.03;;;15.45;100.00
23733;BME280;12047;53.450;-2.286;2023-10-13T22:38:58;100366.81;;;15.81;100.00
23733;BME280;12047;53.450;-2.286;2023-10-13T22:43:59;100378.78;;;15.39;100.00
23733;BME280;12047;53.450;-2.286;2023-10-13T22:49:05;100403.75;;;15.46;100.00
23733;BME280;12047;53.450;-2.286;2023-10-13T22:54:09;100400.47;;;15.67;100.00
23733;BME280;12047;53.450;-2.286;2023-10-13T22:59:11;100413.41;;;15.24;100.00
23733;BME280;12047;53.450;-2.286;2023-10-13T23:04:12;100407.91;;;15.26;100.00
23733;BME280;12047;53.450;-2.286;2023-10-13T23:09:15;100419.22;;;15.28;100.00
23733;BME280;12047;53.450;-2.286;2023-10-13T23:14:42;100418.16;;;15.37;100.00
23733;BME280;12047;53.450;-2.286;2023-10-13T23:19:43;100436.16;;;15.43;100.00
23733;BME280;12047;53.450;-2.286;2023-10-13T23:24:45;100439.69;;;15.36;100.00
23733;BME280;12047;53.450;-2.286;2023-10-13T23:29:46;100441.44;;;15.51;100.00
23733;BME280;12047;53.450;-2.286;2023-10-13T23:34:56;100445.88;;;15.67;100.00
23733;BME280;12047;53.450;-2.286;2023-10-13T23:39:58;100454.19;;;15.41;100.00
23733;BME280;12047;53.450;-2.286;2023-10-13T23:45:11;100473.31;;;15.53;100.00
23733;BME280;12047;53.450;-2.286;2023-10-13T23:50:21;100475.81;;;14.76;100.00
23733;BME280;12047;53.450;-2.286;2023-10-13T23:55:27;100484.28;;;15.27;100.00
